createdAt,value
2022-10-29T00:01:12.836Z,9.32
2022-10-29T00:03:41.205Z,9.57
2022-10-29T00:06:12.132Z,9.43
2022-10-29T00:08:41.479Z,9.30
2022-10-29T00:11:18.686Z,8.38
2022-10-29T00:13:49.509Z,9.77
2022-10-29T00:16:21.226Z,9.80
2022-10-29T00:21:25.440Z,10.25
2022-10-29T00:23:53.963Z,9.57
2022-10-29T00:26:23.185Z,8.77
2022-10-29T00:28:56.479Z,9.10
2022-10-29T00:31:25.260Z,9.15
2022-10-29T00:33:55.708Z,8.55
2022-10-29T00:36:28.540Z,9.23
2022-10-29T00:38:57.476Z,8.50
2022-10-29T00:41:29.826Z,8.68
2022-10-29T00:44:15.673Z,9.30
2022-10-29T00:47:09.473Z,9.23
2022-10-29T00:49:39.467Z,9.25
2022-10-29T00:52:09.321Z,9.35
2022-10-29T00:54:41.517Z,8.93
2022-10-29T00:57:14.893Z,8.55
2022-10-29T00:59:43.779Z,9.60
2022-10-29T01:02:12.098Z,9.40
2022-10-29T01:04:41.722Z,9.30
2022-10-29T01:07:09.883Z,9.35
2022-10-29T01:09:38.173Z,9.68
2022-10-29T01:12:38.403Z,8.80
2022-10-29T01:15:29.927Z,9.00
2022-10-29T01:18:20.004Z,8.23
2022-10-29T01:21:12.824Z,8.73
2022-10-29T01:24:01.920Z,8.75
2022-10-29T01:27:00.639Z,8.30
2022-10-29T01:29:49.393Z,8.73
2022-10-29T01:32:54.828Z,7.93
2022-10-29T01:36:14.046Z,8.32
2022-10-29T01:39:10.533Z,7.75
2022-10-29T01:41:54.788Z,7.90
2022-10-29T01:45:10.072Z,7.60
2022-10-29T01:47:46.045Z,6.75
2022-10-29T01:50:20.590Z,7.45
2022-10-29T01:52:50.455Z,7.85
2022-10-29T01:55:30.114Z,8.13
2022-10-29T01:57:58.662Z,8.27
2022-10-29T02:00:27.598Z,7.28
2022-10-29T02:03:12.311Z,7.32
2022-10-29T02:05:54.845Z,6.72
2022-10-29T02:08:56.475Z,6.90
2022-10-29T02:12:03.256Z,6.53
2022-10-29T02:14:40.220Z,6.57
2022-10-29T02:17:10.847Z,7.35
2022-10-29T02:19:39.068Z,7.13
2022-10-29T02:22:07.100Z,7.15
2022-10-29T02:24:35.277Z,7.47
2022-10-29T02:27:03.196Z,7.07
2022-10-29T02:29:31.267Z,7.63
2022-10-29T02:31:59.360Z,7.93
2022-10-29T02:34:29.898Z,6.22
2022-10-29T02:36:58.219Z,7.53
2022-10-29T02:39:26.232Z,6.72
2022-10-29T02:41:54.633Z,7.25
2022-10-29T02:44:22.622Z,7.35
2022-10-29T02:46:50.904Z,7.22
2022-10-29T02:49:19.585Z,6.55
2022-10-29T02:51:47.607Z,7.32
2022-10-29T02:54:15.715Z,6.57
2022-10-29T02:56:43.603Z,6.55
2022-10-29T02:59:12.013Z,6.82
2022-10-29T03:01:40.542Z,6.43
2022-10-29T03:04:10.310Z,6.38
2022-10-29T03:06:38.759Z,6.45
2022-10-29T03:09:06.874Z,6.18
2022-10-29T03:11:34.749Z,5.80
2022-10-29T03:14:02.672Z,6.47
2022-10-29T03:16:30.631Z,6.45
2022-10-29T03:18:58.603Z,6.05
2022-10-29T03:21:26.674Z,5.95
2022-10-29T03:23:55.059Z,5.47
2022-10-29T03:26:23.309Z,5.28
2022-10-29T03:28:51.369Z,5.30
2022-10-29T03:31:19.374Z,5.07
2022-10-29T03:33:47.348Z,5.43
2022-10-29T03:36:15.445Z,5.60
2022-10-29T03:38:43.690Z,5.03
2022-10-29T03:41:11.665Z,4.78
2022-10-29T03:43:40.364Z,5.00
2022-10-29T03:46:10.123Z,4.70
2022-10-29T03:48:38.037Z,5.00
2022-10-29T03:51:07.504Z,5.07
2022-10-29T03:53:37.299Z,4.97
2022-10-29T03:56:05.929Z,4.70
2022-10-29T03:58:34.184Z,4.30
2022-10-29T04:01:10.456Z,4.72
2022-10-29T04:03:42.595Z,4.88
2022-10-29T04:06:14.964Z,4.85
2022-10-29T04:08:43.244Z,5.07
2022-10-29T04:11:14.646Z,5.00
2022-10-29T04:13:42.594Z,5.20
2022-10-29T04:16:10.521Z,5.13
2022-10-29T04:18:38.571Z,5.18
2022-10-29T04:26:42.181Z,4.65
2022-10-29T04:29:32.199Z,4.78
2022-10-29T04:32:00.109Z,4.63
2022-10-29T04:34:27.966Z,4.35
2022-10-29T04:36:56.115Z,4.72
2022-10-29T04:39:24.233Z,4.70
2022-10-29T04:41:52.032Z,4.07
2022-10-29T04:44:20.405Z,4.65
2022-10-29T04:46:48.404Z,5.00
2022-10-29T04:49:16.421Z,4.43
2022-10-29T04:51:44.497Z,3.75
2022-10-29T04:54:12.348Z,3.97
2022-10-29T04:56:40.210Z,3.65
2022-10-29T04:59:08.601Z,3.80
2022-10-29T05:04:09.752Z,3.83
2022-10-29T05:06:37.786Z,3.80
2022-10-29T05:09:05.752Z,3.92
2022-10-29T05:11:33.882Z,4.25
2022-10-29T05:14:01.765Z,3.90
2022-10-29T05:16:29.662Z,3.85
2022-10-29T05:18:57.710Z,4.07
2022-10-29T05:21:25.573Z,4.30
2022-10-29T05:23:53.440Z,4.70
2022-10-29T05:26:21.763Z,4.22
2022-10-29T05:28:51.615Z,4.82
2022-10-29T05:31:19.783Z,4.35
2022-10-29T05:33:49.935Z,6.68
2022-10-29T05:36:20.316Z,6.53
2022-10-29T05:38:49.969Z,6.68
2022-10-29T05:41:18.111Z,10.63
2022-10-29T05:43:50.675Z,7.22
2022-10-29T05:46:18.584Z,6.10
2022-10-29T05:48:47.493Z,5.90
2022-10-29T05:51:15.861Z,5.13
2022-10-29T05:53:44.845Z,4.88
2022-10-29T05:56:12.889Z,5.45
2022-10-29T05:58:41.369Z,4.80
2022-10-29T06:01:11.071Z,5.03
2022-10-29T06:03:39.553Z,5.22
2022-10-29T06:06:08.737Z,5.22
2022-10-29T06:08:36.864Z,5.60
2022-10-29T06:11:05.369Z,5.38
2022-10-29T06:13:33.561Z,5.57
2022-10-29T06:16:03.112Z,7.25
2022-10-29T06:18:31.290Z,7.47
2022-10-29T06:21:01.138Z,6.60
2022-10-29T06:23:29.506Z,5.40
2022-10-29T06:26:01.330Z,5.45
2022-10-29T06:28:34.540Z,4.30
2022-10-29T06:31:03.501Z,4.85
2022-10-29T06:33:32.009Z,5.72
2022-10-29T06:36:02.018Z,5.28
2022-10-29T06:38:32.534Z,4.85
2022-10-29T06:41:01.741Z,4.07
2022-10-29T06:43:30.377Z,4.85
2022-10-29T06:46:01.394Z,4.32
2022-10-29T06:48:29.292Z,4.10
2022-10-29T06:51:02.526Z,3.70
2022-10-29T06:53:32.498Z,4.03
2022-10-29T06:56:00.730Z,4.28
2022-10-29T06:58:28.706Z,4.60
2022-10-29T07:03:25.909Z,4.30
2022-10-29T07:05:59.141Z,3.80
2022-10-29T07:08:29.085Z,4.22
2022-10-29T07:10:57.395Z,5.05
2022-10-29T07:13:25.482Z,4.03
2022-10-29T07:15:53.935Z,3.92
2022-10-29T07:18:22.716Z,3.80
2022-10-29T07:20:50.934Z,4.15
2022-10-29T07:23:19.174Z,3.78
2022-10-29T07:25:47.068Z,4.28
2022-10-29T07:28:21.947Z,3.95
2022-10-29T07:30:50.940Z,4.55
2022-10-29T07:33:19.764Z,4.18
2022-10-29T07:35:48.324Z,4.10
2022-10-29T07:38:18.833Z,5.00
2022-10-29T07:40:50.224Z,5.35
2022-10-29T07:43:20.309Z,5.38
2022-10-29T07:45:50.913Z,4.38
2022-10-29T07:48:20.948Z,5.65
2022-10-29T07:50:49.380Z,3.95
2022-10-29T07:53:18.866Z,4.65
2022-10-29T07:55:56.650Z,4.40
2022-10-29T07:58:26.474Z,4.90
2022-10-29T08:00:55.346Z,4.15
2022-10-29T08:03:23.563Z,4.10
2022-10-29T08:05:56.363Z,4.65
2022-10-29T08:08:26.459Z,4.55
2022-10-29T08:11:04.575Z,4.63
2022-10-29T08:13:33.711Z,4.43
2022-10-29T08:16:01.679Z,5.20
2022-10-29T08:18:29.620Z,4.75
2022-10-29T08:20:58.211Z,4.60
2022-10-29T08:23:26.181Z,4.47
2022-10-29T08:25:54.150Z,4.80
2022-10-29T08:28:25.643Z,6.20
2022-10-29T08:30:54.059Z,5.30
2022-10-29T08:33:22.643Z,4.60
2022-10-29T08:35:52.836Z,6.63
2022-10-29T08:38:24.525Z,5.47
2022-10-29T08:44:10.775Z,4.30
2022-10-29T08:46:54.241Z,4.40
2022-10-29T08:49:51.047Z,4.88
2022-10-29T08:52:28.951Z,4.63
2022-10-29T08:55:22.920Z,4.20
2022-10-29T08:58:00.001Z,4.95
2022-10-29T09:00:35.230Z,5.22
2022-10-29T09:03:09.582Z,5.97
2022-10-29T09:05:51.149Z,5.50
2022-10-29T09:08:46.066Z,5.10
2022-10-29T09:11:59.463Z,5.07
2022-10-29T09:14:33.478Z,5.20
2022-10-29T09:17:20.256Z,5.85
2022-10-29T09:20:19.074Z,5.63
2022-10-29T09:23:32.118Z,5.63
2022-10-29T09:26:04.780Z,5.55
2022-10-29T09:29:06.859Z,5.22
2022-10-29T09:34:22.653Z,5.40
2022-10-29T09:36:52.139Z,6.18
2022-10-29T09:39:42.348Z,5.68
2022-10-29T09:42:26.146Z,6.07
2022-10-29T09:44:58.655Z,5.40
2022-10-29T09:48:02.666Z,5.88
2022-10-29T09:50:54.676Z,6.28
2022-10-29T09:53:24.575Z,6.30
2022-10-29T09:55:55.808Z,5.75
2022-10-29T09:58:27.012Z,5.72
2022-10-29T10:00:57.472Z,4.95
2022-10-29T10:03:44.111Z,5.97
2022-10-29T10:06:16.489Z,5.63
2022-10-29T10:09:01.033Z,5.50
2022-10-29T10:11:43.205Z,5.50
2022-10-29T10:14:31.706Z,6.30
2022-10-29T10:17:01.910Z,6.03
2022-10-29T10:19:32.617Z,5.78
2022-10-29T10:22:04.060Z,6.50
2022-10-29T10:24:35.837Z,6.13
2022-10-29T10:27:18.892Z,6.20
2022-10-29T10:30:05.366Z,6.18
2022-10-29T10:32:33.617Z,6.28
2022-10-29T10:35:01.513Z,6.90
2022-10-29T10:37:33.756Z,6.55
2022-10-29T10:40:05.726Z,5.72
2022-10-29T10:42:39.715Z,6.60
2022-10-29T10:45:26.061Z,5.55
2022-10-29T10:48:03.036Z,6.22
2022-10-29T10:50:34.724Z,7.00
2022-10-29T10:55:53.356Z,6.47
2022-10-29T10:58:40.460Z,6.10
2022-10-29T11:01:30.625Z,6.35
2022-10-29T11:04:36.193Z,6.45
2022-10-29T11:07:11.364Z,5.60
2022-10-29T11:09:49.272Z,6.55
2022-10-29T11:12:40.555Z,6.95
2022-10-29T11:15:25.417Z,6.10
2022-10-29T11:18:05.376Z,6.20
2022-10-29T11:20:37.300Z,6.65
2022-10-29T11:23:17.295Z,7.22
2022-10-29T11:25:56.597Z,7.50
2022-10-29T11:29:05.192Z,6.70
2022-10-29T11:32:16.956Z,6.63
2022-10-29T11:34:59.667Z,6.97
2022-10-29T11:37:53.012Z,6.78
2022-10-29T11:40:39.174Z,7.38
2022-10-29T11:43:15.304Z,6.10
2022-10-29T11:46:19.078Z,6.72
2022-10-29T11:49:37.603Z,6.40
2022-10-29T11:52:59.341Z,6.38
2022-10-29T11:56:04.093Z,6.10
2022-10-29T11:58:50.905Z,6.25
2022-10-29T12:01:40.847Z,6.50
2022-10-29T12:04:24.724Z,6.93
2022-10-29T12:07:15.476Z,6.22
2022-10-29T12:09:54.567Z,6.50
2022-10-29T12:13:29.501Z,6.80
2022-10-29T12:16:25.932Z,6.95
2022-10-29T12:19:36.869Z,6.50
2022-10-29T12:22:32.738Z,6.30
2022-10-29T12:25:24.765Z,7.95
2022-10-29T12:28:27.616Z,7.93
2022-10-29T12:30:58.465Z,7.45
2022-10-29T12:34:17.540Z,7.10
2022-10-29T12:37:15.159Z,7.55
2022-10-29T12:39:53.311Z,7.95
2022-10-29T12:42:31.863Z,9.23
2022-10-29T12:46:18.921Z,7.38
2022-10-29T12:48:58.620Z,6.65
2022-10-29T12:51:48.487Z,7.30
2022-10-29T12:54:47.731Z,6.95
2022-10-29T12:57:15.658Z,7.47
2022-10-29T12:59:45.757Z,7.75
2022-10-29T13:02:38.065Z,7.32
2022-10-29T13:05:09.925Z,7.13
2022-10-29T13:07:45.240Z,6.80
2022-10-29T13:10:22.664Z,6.28
2022-10-29T13:13:05.783Z,7.60
2022-10-29T13:15:43.401Z,7.38
2022-10-29T13:18:41.235Z,8.75
2022-10-29T13:21:09.876Z,16.30
2022-10-29T13:23:40.671Z,8.25
2022-10-29T13:26:10.166Z,8.50
2022-10-29T13:28:37.941Z,8.30
2022-10-29T13:31:08.625Z,7.50
2022-10-29T13:33:36.631Z,8.40
2022-10-29T13:36:10.126Z,8.50
2022-10-29T13:39:04.923Z,8.23
2022-10-29T13:41:49.097Z,9.05
2022-10-29T13:44:23.190Z,9.27
2022-10-29T13:47:05.210Z,8.88
2022-10-29T13:49:47.433Z,7.93
2022-10-29T13:52:19.361Z,7.68
2022-10-29T13:55:00.338Z,7.10
2022-10-29T13:58:13.743Z,10.18
2022-10-29T14:00:44.579Z,11.90
2022-10-29T14:03:29.914Z,8.23
2022-10-29T14:06:09.150Z,7.40
2022-10-29T14:09:22.781Z,6.85
2022-10-29T14:12:02.531Z,7.13
2022-10-29T14:14:35.278Z,8.73
2022-10-29T14:17:15.696Z,8.90
2022-10-29T14:19:51.545Z,10.65
2022-10-29T14:22:36.578Z,8.88
2022-10-29T14:25:27.265Z,8.32
2022-10-29T14:28:33.436Z,8.35
2022-10-29T14:31:05.759Z,9.18
2022-10-29T14:33:53.349Z,9.30
2022-10-29T14:36:38.416Z,10.35
2022-10-29T14:39:37.084Z,11.60
2022-10-29T14:42:28.401Z,11.02
2022-10-29T14:45:00.061Z,9.02
2022-10-29T14:47:35.685Z,12.50
2022-10-29T14:50:15.382Z,12.63
2022-10-29T14:52:53.348Z,12.48
2022-10-29T14:55:37.465Z,10.77
2022-10-29T14:58:20.748Z,9.00
2022-10-29T15:01:02.181Z,11.13
2022-10-29T15:03:33.379Z,12.57
2022-10-29T15:06:20.432Z,12.18
2022-10-29T15:09:20.559Z,12.38
2022-10-29T15:12:01.909Z,12.80
2022-10-29T15:14:37.889Z,13.02
2022-10-29T15:17:29.241Z,12.90
2022-10-29T15:20:06.930Z,12.85
2022-10-29T15:22:38.631Z,14.63
2022-10-29T15:27:46.776Z,13.15
2022-10-29T15:30:31.700Z,13.63
2022-10-29T15:33:13.695Z,18.63
2022-10-29T15:35:54.572Z,15.82
2022-10-29T15:38:32.878Z,16.70
2022-10-29T15:41:12.787Z,16.20
2022-10-29T15:43:56.280Z,17.20
2022-10-29T15:46:49.007Z,17.33
2022-10-29T15:49:17.348Z,20.65
2022-10-29T15:51:45.847Z,19.55
2022-10-29T15:54:14.509Z,21.30
2022-10-29T15:56:42.901Z,20.17
2022-10-29T15:59:18.657Z,21.95
2022-10-29T16:01:46.972Z,19.77
2022-10-29T16:04:14.901Z,25.27
2022-10-29T16:06:42.894Z,28.98
2022-10-29T16:09:18.822Z,31.08
2022-10-29T16:11:47.018Z,28.55
2022-10-29T16:14:15.130Z,19.67
2022-10-29T16:16:43.189Z,18.17
2022-10-29T16:19:11.147Z,17.80
2022-10-29T16:21:40.307Z,19.55
2022-10-29T16:24:15.890Z,17.65
2022-10-29T16:26:44.195Z,19.38
2022-10-29T16:29:12.099Z,18.00
2022-10-29T16:31:42.549Z,16.02
2022-10-29T16:34:13.803Z,16.15
2022-10-29T16:36:41.870Z,15.88
2022-10-29T16:39:09.857Z,18.83
2022-10-29T16:41:37.855Z,19.70
2022-10-29T16:44:05.770Z,16.95
2022-10-29T16:46:33.787Z,14.10
2022-10-29T16:49:01.984Z,13.95
2022-10-29T16:51:29.929Z,12.50
2022-10-29T16:53:59.581Z,13.50
2022-10-29T16:56:27.526Z,13.88
2022-10-29T16:59:01.706Z,15.10
2022-10-29T17:01:30.531Z,16.08
2022-10-29T17:03:59.736Z,16.10
2022-10-29T17:06:27.810Z,17.00
2022-10-29T17:08:56.001Z,17.20
2022-10-29T17:11:24.007Z,18.40
2022-10-29T17:13:52.379Z,17.15
2022-10-29T17:16:20.719Z,16.50
2022-10-29T17:18:50.849Z,15.95
2022-10-29T17:21:18.921Z,14.57
2022-10-29T17:23:48.787Z,13.18
2022-10-29T17:26:18.815Z,14.00
2022-10-29T17:28:47.084Z,15.07
2022-10-29T17:31:15.074Z,13.55
2022-10-29T17:33:42.989Z,13.35
2022-10-29T17:36:15.926Z,19.88
2022-10-29T17:38:44.190Z,13.82
2022-10-29T17:41:12.754Z,13.18
2022-10-29T17:43:41.137Z,12.77
2022-10-29T17:46:09.147Z,11.82
2022-10-29T17:48:37.137Z,11.63
2022-10-29T17:51:05.907Z,10.98
2022-10-29T17:53:34.091Z,11.52
2022-10-29T17:56:02.156Z,12.27
2022-10-29T17:58:31.327Z,13.18
2022-10-29T18:01:08.364Z,13.45
2022-10-29T18:03:38.017Z,14.90
2022-10-29T18:06:10.332Z,17.23
2022-10-29T18:08:40.778Z,17.42
2022-10-29T18:11:22.117Z,17.42
2022-10-29T18:13:51.093Z,14.95
2022-10-29T18:16:23.369Z,14.77
2022-10-29T18:19:01.635Z,15.48
2022-10-29T18:21:31.987Z,15.82
2022-10-29T18:24:00.243Z,14.75
2022-10-29T18:26:37.250Z,14.32
2022-10-29T18:29:12.248Z,11.93
2022-10-29T18:31:45.139Z,11.13
2022-10-29T18:34:15.455Z,11.05
2022-10-29T18:36:43.740Z,12.98
2022-10-29T18:39:12.460Z,13.75
2022-10-29T18:41:41.076Z,13.73
2022-10-29T18:44:09.182Z,14.60
2022-10-29T18:46:37.238Z,14.45
2022-10-29T18:49:05.536Z,13.63
2022-10-29T18:51:33.768Z,14.30
2022-10-29T18:54:01.871Z,13.52
2022-10-29T18:56:31.479Z,13.40
2022-10-29T18:59:00.449Z,12.35
2022-10-29T19:01:32.342Z,12.20
2022-10-29T19:04:08.613Z,14.35
2022-10-29T19:06:38.263Z,16.50
2022-10-29T19:09:09.536Z,12.50
2022-10-29T19:11:37.887Z,11.10
2022-10-29T19:14:12.227Z,12.07
2022-10-29T19:16:40.672Z,11.27
2022-10-29T19:19:16.044Z,12.13
2022-10-29T19:21:47.345Z,12.48
2022-10-29T19:24:16.676Z,13.13
2022-10-29T19:26:45.230Z,13.18
2022-10-29T19:29:14.199Z,15.80
2022-10-29T19:31:46.582Z,16.55
2022-10-29T19:34:17.347Z,16.60
2022-10-29T19:36:45.426Z,13.75
2022-10-29T19:39:16.510Z,12.77
2022-10-29T19:41:44.795Z,10.50
2022-10-29T19:44:14.959Z,11.57
2022-10-29T19:46:43.837Z,11.88
2022-10-29T19:49:11.964Z,12.55
2022-10-29T19:51:40.683Z,12.40
2022-10-29T19:54:08.817Z,12.00
2022-10-29T19:56:37.005Z,11.68
2022-10-29T19:59:05.708Z,11.75
2022-10-29T20:01:33.942Z,11.55
2022-10-29T20:04:02.297Z,11.50
2022-10-29T20:06:30.354Z,10.45
2022-10-29T20:09:00.597Z,10.35
2022-10-29T20:11:29.763Z,10.05
2022-10-29T20:13:57.967Z,10.52
2022-10-29T20:16:26.050Z,10.70
2022-10-29T20:18:55.190Z,10.52
2022-10-29T20:21:23.178Z,10.32
2022-10-29T20:23:52.692Z,10.00
2022-10-29T20:26:22.643Z,9.95
2022-10-29T20:28:50.668Z,10.52
2022-10-29T20:31:18.559Z,10.27
2022-10-29T20:33:56.011Z,10.80
2022-10-29T20:36:28.022Z,11.93
2022-10-29T20:38:57.964Z,11.05
2022-10-29T20:41:26.197Z,13.23
2022-10-29T20:44:01.531Z,15.05
2022-10-29T20:46:29.891Z,17.50
2022-10-29T20:48:58.030Z,19.92
2022-10-29T20:51:26.695Z,19.88
2022-10-29T20:53:55.164Z,19.90
2022-10-29T20:56:27.519Z,20.00
2022-10-29T20:58:55.597Z,18.35
2022-10-29T21:01:26.476Z,16.33
2022-10-29T21:03:54.686Z,13.95
2022-10-29T21:06:23.197Z,14.02
2022-10-29T21:08:52.581Z,12.57
2022-10-29T21:11:22.327Z,12.48
2022-10-29T21:13:50.953Z,11.95
2022-10-29T21:16:28.108Z,11.98
2022-10-29T21:18:59.527Z,12.30
2022-10-29T21:21:33.212Z,16.50
2022-10-29T21:24:01.127Z,15.48
2022-10-29T21:26:29.877Z,14.43
2022-10-29T21:28:58.550Z,12.98
2022-10-29T21:31:26.553Z,13.38
2022-10-29T21:33:56.305Z,12.93
2022-10-29T21:36:24.485Z,13.27
2022-10-29T21:38:58.407Z,12.52
2022-10-29T21:41:28.591Z,12.95
2022-10-29T21:43:56.562Z,13.55
2022-10-29T21:46:30.026Z,16.77
2022-10-29T21:49:00.798Z,14.38
2022-10-29T21:51:29.273Z,12.93
2022-10-29T21:53:59.288Z,13.25
2022-10-29T21:56:27.412Z,12.85
2022-10-29T21:58:55.540Z,11.57
2022-10-29T22:01:23.652Z,11.48
2022-10-29T22:03:51.916Z,12.13
2022-10-29T22:06:22.922Z,11.77
2022-10-29T22:08:59.848Z,12.18
2022-10-29T22:11:28.957Z,12.23
2022-10-29T22:13:58.139Z,12.60
2022-10-29T22:16:26.258Z,12.48
2022-10-29T22:18:54.269Z,12.82
2022-10-29T22:21:27.294Z,11.48
2022-10-29T22:24:00.288Z,15.82
2022-10-29T22:26:39.001Z,15.70
2022-10-29T22:29:07.490Z,13.32
2022-10-29T22:31:35.452Z,12.23
2022-10-29T22:34:03.467Z,12.25
2022-10-29T22:36:33.322Z,12.98
2022-10-29T22:39:01.746Z,14.43
2022-10-29T22:41:30.547Z,16.85
2022-10-29T22:43:59.304Z,14.55
2022-10-29T22:46:29.936Z,13.02
2022-10-29T22:48:58.256Z,13.63
2022-10-29T22:51:31.880Z,14.50
2022-10-29T22:54:00.054Z,12.32
2022-10-29T22:56:34.923Z,12.27
2022-10-29T22:59:04.237Z,11.55
2022-10-29T23:01:40.278Z,11.73
2022-10-29T23:04:12.088Z,12.43
2022-10-29T23:06:40.272Z,11.88
2022-10-29T23:09:08.596Z,16.30
2022-10-29T23:11:39.238Z,15.05
2022-10-29T23:14:09.005Z,12.95
2022-10-29T23:16:37.159Z,12.73
2022-10-29T23:19:06.750Z,11.88
2022-10-29T23:21:35.946Z,12.45
2022-10-29T23:24:04.047Z,11.85
2022-10-29T23:26:31.880Z,11.13
2022-10-29T23:28:59.843Z,54.75
2022-10-29T23:31:29.125Z,32.50
2022-10-29T23:33:58.757Z,18.00
2022-10-29T23:36:28.189Z,13.38
2022-10-29T23:39:01.576Z,11.95
2022-10-29T23:41:31.580Z,11.30
2022-10-29T23:43:59.943Z,12.85
2022-10-29T23:46:27.796Z,14.30
2022-10-29T23:48:56.028Z,14.52
2022-10-29T23:51:23.913Z,12.02
2022-10-29T23:53:54.855Z,11.93
2022-10-29T23:56:25.982Z,11.60
2022-10-29T23:58:54.169Z,11.60
